sensor_id;sensor_type;location;lat;lon;timestamp;temperature;humidity
42479;DHT22;28110;47.080;9.476;2023-02-28T00:00:23;0.10;99.90
42479;DHT22;28110;47.080;9.476;2023-02-28T00:02:49;0.10;99.90
42479;DHT22;28110;47.080;9.476;2023-02-28T00:05:17;0.10;99.90
42479;DHT22;28110;47.080;9.476;2023-02-28T00:07:43;0.10;99.90
42479;DHT22;28110;47.080;9.476;2023-02-28T00:10:12;0.10;99.90
42479;DHT22;28110;47.080;9.476;2023-02-28T00:12:38;0.10;99.90
42479;DHT22;28110;47.080;9.476;2023-02-28T00:15:09;0.20;99.90
42479;DHT22;28110;47.080;9.476;2023-02-28T00:17:34;0.10;99.90
42479;DHT22;28110;47.080;9.476;2023-02-28T00:20:00;0.10;99.90
42479;DHT22;28110;47.080;9.476;2023-02-28T00:22:38;0.10;99.90
42479;DHT22;28110;47.080;9.476;2023-02-28T00:25:04;0.10;99.90
42479;DHT22;28110;47.080;9.476;2023-02-28T00:27:30;0.10;99.90
42479;DHT22;28110;47.080;9.476;2023-02-28T00:29:55;0.10;99.90
42479;DHT22;28110;47.080;9.476;2023-02-28T00:32:21;0.00;99.90
42479;DHT22;28110;47.080;9.476;2023-02-28T00:34:47;0.00;99.90
42479;DHT22;28110;47.080;9.476;2023-02-28T00:37:12;0.00;99.90
42479;DHT22;28110;47.080;9.476;2023-02-28T00:39:39;0.10;99.90
42479;DHT22;28110;47.080;9.476;2023-02-28T00:42:05;0.10;99.90
42479;DHT22;28110;47.080;9.476;2023-02-28T00:44:31;0.10;99.90
42479;DHT22;28110;47.080;9.476;2023-02-28T00:46:57;0.00;99.90
42479;DHT22;28110;47.080;9.476;2023-02-28T00:49:23;0.10;99.90
42479;DHT22;28110;47.080;9.476;2023-02-28T00:51:49;0.10;99.90
42479;DHT22;28110;47.080;9.476;2023-02-28T00:54:15;0.10;99.90
42479;DHT22;28110;47.080;9.476;2023-02-28T00:56:41;0.10;99.90
42479;DHT22;28110;47.080;9.476;2023-02-28T00:59:06;0.10;99.90
42479;DHT22;28110;47.080;9.476;2023-02-28T01:01:32;0.10;99.90
42479;DHT22;28110;47.080;9.476;2023-02-28T01:03:58;0.10;99.90
42479;DHT22;28110;47.080;9.476;2023-02-28T01:06:23;0.10;99.90
42479;DHT22;28110;47.080;9.476;2023-02-28T01:08:49;0.10;99.90
42479;DHT22;28110;47.080;9.476;2023-02-28T01:11:16;0.10;99.90
42479;DHT22;28110;47.080;9.476;2023-02-28T01:13:42;0.10;99.90
42479;DHT22;28110;47.080;9.476;2023-02-28T01:16:08;0.10;99.90
42479;DHT22;28110;47.080;9.476;2023-02-28T01:18:34;0.10;99.90
42479;DHT22;28110;47.080;9.476;2023-02-28T01:21:07;0.10;99.90
42479;DHT22;28110;47.080;9.476;2023-02-28T01:23:32;0.00;99.90
42479;DHT22;28110;47.080;9.476;2023-02-28T01:26:06;0.00;99.90
42479;DHT22;28110;47.080;9.476;2023-02-28T01:28:33;0.00;99.90
42479;DHT22;28110;47.080;9.476;2023-02-28T01:30:59;0.00;99.90
42479;DHT22;28110;47.080;9.476;2023-02-28T01:33:24;0.00;99.90
42479;DHT22;28110;47.080;9.476;2023-02-28T01:36:01;0.00;99.90
42479;DHT22;28110;47.080;9.476;2023-02-28T01:38:27;0.00;99.90
42479;DHT22;28110;47.080;9.476;2023-02-28T01:40:53;0.00;99.90
42479;DHT22;28110;47.080;9.476;2023-02-28T01:43:28;0.00;99.90
42479;DHT22;28110;47.080;9.476;2023-02-28T01:45:56;0.00;99.90
42479;DHT22;28110;47.080;9.476;2023-02-28T01:48:26;0.00;99.90
42479;DHT22;28110;47.080;9.476;2023-02-28T01:50:55;0.00;99.90
42479;DHT22;28110;47.080;9.476;2023-02-28T01:53:29;0.00;99.90
42479;DHT22;28110;47.080;9.476;2023-02-28T01:55:57;0.00;99.90
42479;DHT22;28110;47.080;9.476;2023-02-28T01:58:23;0.00;99.90
42479;DHT22;28110;47.080;9.476;2023-02-28T02:00:49;0.00;99.90
42479;DHT22;28110;47.080;9.476;2023-02-28T02:03:17;0.00;99.90
42479;DHT22;28110;47.080;9.476;2023-02-28T02:05:44;0.00;99.90
42479;DHT22;28110;47.080;9.476;2023-02-28T02:08:21;0.00;99.90
42479;DHT22;28110;47.080;9.476;2023-02-28T02:10:50;0.00;99.90
42479;DHT22;28110;47.080;9.476;2023-02-28T02:29:45;0.00;99.90
42479;DHT22;28110;47.080;9.476;2023-02-28T02:35:37;0.00;99.90
42479;DHT22;28110;47.080;9.476;2023-02-28T02:41:02;0.10;99.90
42479;DHT22;28110;47.080;9.476;2023-02-28T02:43:35;0.00;99.90
42479;DHT22;28110;47.080;9.476;2023-02-28T02:46:06;0.10;99.90
42479;DHT22;28110;47.080;9.476;2023-02-28T02:48:35;0.10;99.90
42479;DHT22;28110;47.080;9.476;2023-02-28T02:51:13;0.00;99.90
42479;DHT22;28110;47.080;9.476;2023-02-28T02:54:02;0.00;99.90
42479;DHT22;28110;47.080;9.476;2023-02-28T02:56:31;0.00;99.90
42479;DHT22;28110;47.080;9.476;2023-02-28T02:59:05;0.10;99.90
42479;DHT22;28110;47.080;9.476;2023-02-28T03:01:33;0.00;99.90
42479;DHT22;28110;47.080;9.476;2023-02-28T03:04:13;0.10;99.90
42479;DHT22;28110;47.080;9.476;2023-02-28T03:06:40;0.00;99.90
42479;DHT22;28110;47.080;9.476;2023-02-28T03:09:06;0.00;99.90
42479;DHT22;28110;47.080;9.476;2023-02-28T03:11:32;0.00;99.90
42479;DHT22;28110;47.080;9.476;2023-02-28T03:22:40;-0.10;99.90
42479;DHT22;28110;47.080;9.476;2023-02-28T03:28:26;-0.10;99.90
42479;DHT22;28110;47.080;9.476;2023-02-28T03:31:19;-0.20;99.90
42479;DHT22;28110;47.080;9.476;2023-02-28T03:33:47;-0.20;99.90
42479;DHT22;28110;47.080;9.476;2023-02-28T03:36:25;-0.20;99.90
42479;DHT22;28110;47.080;9.476;2023-02-28T03:38:59;-0.10;99.90
42479;DHT22;28110;47.080;9.476;2023-02-28T03:41:51;-0.10;99.90
42479;DHT22;28110;47.080;9.476;2023-02-28T03:44:21;-0.10;99.90
42479;DHT22;28110;47.080;9.476;2023-02-28T03:46:58;-0.10;99.90
42479;DHT22;28110;47.080;9.476;2023-02-28T03:49:36;-0.20;99.90
42479;DHT22;28110;47.080;9.476;2023-02-28T03:52:06;-0.10;99.90
42479;DHT22;28110;47.080;9.476;2023-02-28T03:54:36;-0.10;99.90
42479;DHT22;28110;47.080;9.476;2023-02-28T03:57:12;-0.20;99.90
42479;DHT22;28110;47.080;9.476;2023-02-28T03:59:44;-0.20;99.90
42479;DHT22;28110;47.080;9.476;2023-02-28T04:02:11;-0.20;99.90
42479;DHT22;28110;47.080;9.476;2023-02-28T04:04:37;-0.20;99.90
42479;DHT22;28110;47.080;9.476;2023-02-28T04:07:11;-0.20;99.90
42479;DHT22;28110;47.080;9.476;2023-02-28T04:09:37;-0.10;99.90
42479;DHT22;28110;47.080;9.476;2023-02-28T04:12:02;-0.10;99.90
42479;DHT22;28110;47.080;9.476;2023-02-28T04:14:28;-0.10;99.90
42479;DHT22;28110;47.080;9.476;2023-02-28T04:16:53;-0.10;99.90
42479;DHT22;28110;47.080;9.476;2023-02-28T04:19:19;-0.10;99.90
42479;DHT22;28110;47.080;9.476;2023-02-28T04:21:49;-0.20;99.90
42479;DHT22;28110;47.080;9.476;2023-02-28T04:24:18;-0.10;99.90
42479;DHT22;28110;47.080;9.476;2023-02-28T04:26:46;-0.10;99.90
42479;DHT22;28110;47.080;9.476;2023-02-28T04:29:17;-0.10;99.90
42479;DHT22;28110;47.080;9.476;2023-02-28T04:31:44;-0.20;99.90
42479;DHT22;28110;47.080;9.476;2023-02-28T04:34:09;-0.20;99.90
42479;DHT22;28110;47.080;9.476;2023-02-28T04:36:35;-0.20;99.90
42479;DHT22;28110;47.080;9.476;2023-02-28T04:39:00;-0.20;99.90
42479;DHT22;28110;47.080;9.476;2023-02-28T04:41:26;-0.20;99.90
42479;DHT22;28110;47.080;9.476;2023-02-28T04:43:52;-0.20;99.90
42479;DHT22;28110;47.080;9.476;2023-02-28T04:46:18;-0.10;99.90
42479;DHT22;28110;47.080;9.476;2023-02-28T04:48:44;-0.10;99.90
42479;DHT22;28110;47.080;9.476;2023-02-28T04:51:12;-0.10;99.90
42479;DHT22;28110;47.080;9.476;2023-02-28T04:53:40;-0.10;99.90
42479;DHT22;28110;47.080;9.476;2023-02-28T04:56:07;-0.10;99.90
42479;DHT22;28110;47.080;9.476;2023-02-28T04:58:33;-0.10;99.90
42479;DHT22;28110;47.080;9.476;2023-02-28T05:01:04;-0.10;99.90
42479;DHT22;28110;47.080;9.476;2023-02-28T05:03:39;0.00;99.90
42479;DHT22;28110;47.080;9.476;2023-02-28T05:06:06;0.00;99.90
42479;DHT22;28110;47.080;9.476;2023-02-28T05:08:32;-0.10;99.90
42479;DHT22;28110;47.080;9.476;2023-02-28T05:10:58;-0.10;99.90
42479;DHT22;28110;47.080;9.476;2023-02-28T05:13:26;0.00;99.90
42479;DHT22;28110;47.080;9.476;2023-02-28T05:15:52;-0.10;99.90
42479;DHT22;28110;47.080;9.476;2023-02-28T05:18:17;-0.10;99.90
42479;DHT22;28110;47.080;9.476;2023-02-28T05:20:43;-0.10;99.90
42479;DHT22;28110;47.080;9.476;2023-02-28T05:23:11;-0.10;99.90
42479;DHT22;28110;47.080;9.476;2023-02-28T05:25:38;-0.10;99.90
42479;DHT22;28110;47.080;9.476;2023-02-28T05:28:04;-0.10;99.90
42479;DHT22;28110;47.080;9.476;2023-02-28T05:30:30;-0.10;99.90
42479;DHT22;28110;47.080;9.476;2023-02-28T05:32:57;-0.10;99.90
42479;DHT22;28110;47.080;9.476;2023-02-28T05:35:23;-0.10;99.90
42479;DHT22;28110;47.080;9.476;2023-02-28T05:37:49;-0.10;99.90
42479;DHT22;28110;47.080;9.476;2023-02-28T05:40:14;-0.10;99.90
42479;DHT22;28110;47.080;9.476;2023-02-28T05:42:41;-0.10;99.90
42479;DHT22;28110;47.080;9.476;2023-02-28T05:45:07;-0.20;99.90
42479;DHT22;28110;47.080;9.476;2023-02-28T05:47:34;-0.20;99.90
42479;DHT22;28110;47.080;9.476;2023-02-28T05:49:59;-0.20;99.90
42479;DHT22;28110;47.080;9.476;2023-02-28T05:52:25;-0.20;99.90
42479;DHT22;28110;47.080;9.476;2023-02-28T05:54:51;-0.20;99.90
42479;DHT22;28110;47.080;9.476;2023-02-28T05:57:16;-0.30;99.90
42479;DHT22;28110;47.080;9.476;2023-02-28T05:59:42;-0.30;99.90
42479;DHT22;28110;47.080;9.476;2023-02-28T06:02:12;-0.20;99.90
42479;DHT22;28110;47.080;9.476;2023-02-28T06:04:38;-0.20;99.90
42479;DHT22;28110;47.080;9.476;2023-02-28T06:07:03;-0.20;99.90
42479;DHT22;28110;47.080;9.476;2023-02-28T06:09:29;-0.20;99.90
42479;DHT22;28110;47.080;9.476;2023-02-28T06:11:57;-0.20;99.90
42479;DHT22;28110;47.080;9.476;2023-02-28T06:14:22;-0.20;99.90
42479;DHT22;28110;47.080;9.476;2023-02-28T06:16:48;-0.20;99.90
42479;DHT22;28110;47.080;9.476;2023-02-28T06:19:14;-0.10;99.90
42479;DHT22;28110;47.080;9.476;2023-02-28T06:21:40;-0.10;99.90
42479;DHT22;28110;47.080;9.476;2023-02-28T06:24:06;-0.10;99.90
42479;DHT22;28110;47.080;9.476;2023-02-28T06:26:32;-0.10;99.90
42479;DHT22;28110;47.080;9.476;2023-02-28T06:28:58;-0.10;99.90
42479;DHT22;28110;47.080;9.476;2023-02-28T06:31:24;-0.10;99.90
42479;DHT22;28110;47.080;9.476;2023-02-28T06:33:51;-0.10;99.90
42479;DHT22;28110;47.080;9.476;2023-02-28T06:36:17;-0.20;99.90
42479;DHT22;28110;47.080;9.476;2023-02-28T06:38:43;-0.20;99.90
42479;DHT22;28110;47.080;9.476;2023-02-28T06:41:09;-0.10;99.90
42479;DHT22;28110;47.080;9.476;2023-02-28T06:43:39;-0.20;99.90
42479;DHT22;28110;47.080;9.476;2023-02-28T06:46:06;-0.10;99.90
42479;DHT22;28110;47.080;9.476;2023-02-28T06:48:32;-0.20;99.90
42479;DHT22;28110;47.080;9.476;2023-02-28T06:51:03;-0.10;99.90
42479;DHT22;28110;47.080;9.476;2023-02-28T06:53:28;-0.10;99.90
42479;DHT22;28110;47.080;9.476;2023-02-28T06:55:54;-0.10;99.90
42479;DHT22;28110;47.080;9.476;2023-02-28T06:58:19;-0.10;99.90
42479;DHT22;28110;47.080;9.476;2023-02-28T07:00:45;-0.10;99.90
42479;DHT22;28110;47.080;9.476;2023-02-28T07:03:13;-0.10;99.90
42479;DHT22;28110;47.080;9.476;2023-02-28T07:05:40;-0.10;99.90
42479;DHT22;28110;47.080;9.476;2023-02-28T07:08:06;-0.10;99.90
42479;DHT22;28110;47.080;9.476;2023-02-28T07:10:37;-0.10;99.90
42479;DHT22;28110;47.080;9.476;2023-02-28T07:13:04;0.00;99.90
42479;DHT22;28110;47.080;9.476;2023-02-28T07:15:29;0.00;99.90
42479;DHT22;28110;47.080;9.476;2023-02-28T07:17:55;-0.10;99.90
42479;DHT22;28110;47.080;9.476;2023-02-28T07:20:22;0.00;99.90
42479;DHT22;28110;47.080;9.476;2023-02-28T07:22:48;0.00;99.90
42479;DHT22;28110;47.080;9.476;2023-02-28T07:25:21;0.00;99.90
42479;DHT22;28110;47.080;9.476;2023-02-28T07:27:46;0.00;99.90
42479;DHT22;28110;47.080;9.476;2023-02-28T07:30:12;0.00;99.90
42479;DHT22;28110;47.080;9.476;2023-02-28T07:32:38;0.00;99.90
42479;DHT22;28110;47.080;9.476;2023-02-28T07:35:04;0.00;99.90
42479;DHT22;28110;47.080;9.476;2023-02-28T07:37:30;0.10;99.90
42479;DHT22;28110;47.080;9.476;2023-02-28T07:39:57;0.00;99.90
42479;DHT22;28110;47.080;9.476;2023-02-28T07:42:22;0.00;99.90
42479;DHT22;28110;47.080;9.476;2023-02-28T07:44:48;0.10;99.90
42479;DHT22;28110;47.080;9.476;2023-02-28T07:47:13;0.10;99.90
42479;DHT22;28110;47.080;9.476;2023-02-28T07:49:39;0.10;99.90
42479;DHT22;28110;47.080;9.476;2023-02-28T07:52:06;0.10;99.90
42479;DHT22;28110;47.080;9.476;2023-02-28T07:54:32;0.10;99.90
42479;DHT22;28110;47.080;9.476;2023-02-28T07:56:59;0.10;99.90
42479;DHT22;28110;47.080;9.476;2023-02-28T07:59:24;0.10;99.90
42479;DHT22;28110;47.080;9.476;2023-02-28T08:01:50;0.10;99.90
42479;DHT22;28110;47.080;9.476;2023-02-28T08:04:17;0.10;99.90
42479;DHT22;28110;47.080;9.476;2023-02-28T08:06:43;0.10;99.90
42479;DHT22;28110;47.080;9.476;2023-02-28T08:09:08;0.10;99.90
42479;DHT22;28110;47.080;9.476;2023-02-28T08:11:34;0.10;99.90
42479;DHT22;28110;47.080;9.476;2023-02-28T08:13:59;0.20;99.90
42479;DHT22;28110;47.080;9.476;2023-02-28T08:16:25;0.30;99.90
42479;DHT22;28110;47.080;9.476;2023-02-28T08:18:52;0.30;99.90
42479;DHT22;28110;47.080;9.476;2023-02-28T08:21:19;0.30;99.90
42479;DHT22;28110;47.080;9.476;2023-02-28T08:23:47;0.30;99.90
42479;DHT22;28110;47.080;9.476;2023-02-28T08:26:15;0.30;99.90
42479;DHT22;28110;47.080;9.476;2023-02-28T08:28:40;0.30;99.90
42479;DHT22;28110;47.080;9.476;2023-02-28T08:31:10;0.40;99.90
42479;DHT22;28110;47.080;9.476;2023-02-28T08:33:37;0.30;99.90
42479;DHT22;28110;47.080;9.476;2023-02-28T08:36:04;0.30;99.90
42479;DHT22;28110;47.080;9.476;2023-02-28T08:38:30;0.40;99.90
42479;DHT22;28110;47.080;9.476;2023-02-28T08:41:04;0.40;99.90
42479;DHT22;28110;47.080;9.476;2023-02-28T08:43:33;0.30;99.90
42479;DHT22;28110;47.080;9.476;2023-02-28T08:45:59;0.40;99.90
42479;DHT22;28110;47.080;9.476;2023-02-28T08:48:29;0.40;99.90
42479;DHT22;28110;47.080;9.476;2023-02-28T08:50:56;0.40;99.90
42479;DHT22;28110;47.080;9.476;2023-02-28T08:53:22;0.50;99.90
42479;DHT22;28110;47.080;9.476;2023-02-28T08:56:02;0.50;99.90
42479;DHT22;28110;47.080;9.476;2023-02-28T08:58:28;0.60;99.90
42479;DHT22;28110;47.080;9.476;2023-02-28T09:00:54;0.60;99.90
42479;DHT22;28110;47.080;9.476;2023-02-28T09:03:20;0.60;99.90
42479;DHT22;28110;47.080;9.476;2023-02-28T09:05:57;0.60;99.90
42479;DHT22;28110;47.080;9.476;2023-02-28T09:08:24;0.60;99.90
42479;DHT22;28110;47.080;9.476;2023-02-28T09:10:50;0.70;99.90
42479;DHT22;28110;47.080;9.476;2023-02-28T09:13:17;0.70;99.90
42479;DHT22;28110;47.080;9.476;2023-02-28T09:15:43;0.80;99.90
42479;DHT22;28110;47.080;9.476;2023-02-28T09:18:09;0.80;99.90
42479;DHT22;28110;47.080;9.476;2023-02-28T09:20:38;0.80;99.90
42479;DHT22;28110;47.080;9.476;2023-02-28T09:23:05;0.80;99.90
42479;DHT22;28110;47.080;9.476;2023-02-28T09:25:30;0.90;99.90
42479;DHT22;28110;47.080;9.476;2023-02-28T09:27:56;1.00;99.90
42479;DHT22;28110;47.080;9.476;2023-02-28T09:30:21;1.00;99.90
42479;DHT22;28110;47.080;9.476;2023-02-28T09:32:47;1.00;99.90
42479;DHT22;28110;47.080;9.476;2023-02-28T09:35:18;1.00;99.90
42479;DHT22;28110;47.080;9.476;2023-02-28T09:37:43;1.00;99.90
42479;DHT22;28110;47.080;9.476;2023-02-28T09:40:10;1.10;99.90
42479;DHT22;28110;47.080;9.476;2023-02-28T09:42:36;1.20;99.90
42479;DHT22;28110;47.080;9.476;2023-02-28T09:45:06;1.20;99.90
42479;DHT22;28110;47.080;9.476;2023-02-28T09:47:46;1.30;99.90
42479;DHT22;28110;47.080;9.476;2023-02-28T09:50:33;1.30;99.90
42479;DHT22;28110;47.080;9.476;2023-02-28T09:53:03;1.30;99.90
42479;DHT22;28110;47.080;9.476;2023-02-28T09:55:39;1.40;99.90
42479;DHT22;28110;47.080;9.476;2023-02-28T09:58:40;1.40;99.90
42479;DHT22;28110;47.080;9.476;2023-02-28T10:04:26;1.50;99.90
42479;DHT22;28110;47.080;9.476;2023-02-28T10:06:54;1.60;99.90
42479;DHT22;28110;47.080;9.476;2023-02-28T10:09:26;1.70;99.90
42479;DHT22;28110;47.080;9.476;2023-02-28T10:11:57;1.80;99.90
42479;DHT22;28110;47.080;9.476;2023-02-28T10:14:28;1.90;99.90
42479;DHT22;28110;47.080;9.476;2023-02-28T10:17:16;1.80;99.90
42479;DHT22;28110;47.080;9.476;2023-02-28T10:22:22;2.10;99.90
42479;DHT22;28110;47.080;9.476;2023-02-28T10:24:54;2.10;99.90
42479;DHT22;28110;47.080;9.476;2023-02-28T10:27:28;2.20;99.90
42479;DHT22;28110;47.080;9.476;2023-02-28T10:29:56;2.20;99.90
42479;DHT22;28110;47.080;9.476;2023-02-28T10:32:33;2.20;99.90
42479;DHT22;28110;47.080;9.476;2023-02-28T10:37:37;2.40;99.90
42479;DHT22;28110;47.080;9.476;2023-02-28T10:40:05;2.40;99.90
42479;DHT22;28110;47.080;9.476;2023-02-28T10:42:31;2.40;99.90
42479;DHT22;28110;47.080;9.476;2023-02-28T10:58:27;2.40;99.90
42479;DHT22;28110;47.080;9.476;2023-02-28T11:00:54;2.50;99.90
42479;DHT22;28110;47.080;9.476;2023-02-28T11:05:55;2.60;99.90
42479;DHT22;28110;47.080;9.476;2023-02-28T11:08:21;2.70;99.90
42479;DHT22;28110;47.080;9.476;2023-02-28T11:10:54;2.70;99.90
42479;DHT22;28110;47.080;9.476;2023-02-28T11:13:21;2.80;99.90
42479;DHT22;28110;47.080;9.476;2023-02-28T11:15:58;2.80;99.90
42479;DHT22;28110;47.080;9.476;2023-02-28T11:18:47;2.80;99.90
42479;DHT22;28110;47.080;9.476;2023-02-28T11:21:26;2.80;99.90
42479;DHT22;28110;47.080;9.476;2023-02-28T11:24:17;2.80;99.90
42479;DHT22;28110;47.080;9.476;2023-02-28T11:26:48;2.80;99.90
42479;DHT22;28110;47.080;9.476;2023-02-28T11:29:24;2.80;99.90
42479;DHT22;28110;47.080;9.476;2023-02-28T11:34:40;2.90;99.90
42479;DHT22;28110;47.080;9.476;2023-02-28T11:37:13;2.90;99.90
42479;DHT22;28110;47.080;9.476;2023-02-28T11:39:40;2.90;99.90
42479;DHT22;28110;47.080;9.476;2023-02-28T11:45:19;2.90;99.90
42479;DHT22;28110;47.080;9.476;2023-02-28T11:48:04;3.00;99.90
42479;DHT22;28110;47.080;9.476;2023-02-28T11:50:49;3.10;99.90
42479;DHT22;28110;47.080;9.476;2023-02-28T11:53:47;3.20;99.90
42479;DHT22;28110;47.080;9.476;2023-02-28T12:10:23;3.30;99.90
42479;DHT22;28110;47.080;9.476;2023-02-28T12:13:15;3.30;99.90
42479;DHT22;28110;47.080;9.476;2023-02-28T12:27:02;3.50;99.90
42479;DHT22;28110;47.080;9.476;2023-02-28T12:29:37;3.60;99.90
42479;DHT22;28110;47.080;9.476;2023-02-28T12:34:41;3.50;99.90
42479;DHT22;28110;47.080;9.476;2023-02-28T12:37:32;3.60;99.90
42479;DHT22;28110;47.080;9.476;2023-02-28T12:40:02;3.70;99.90
42479;DHT22;28110;47.080;9.476;2023-02-28T12:42:36;3.80;99.90
42479;DHT22;28110;47.080;9.476;2023-02-28T12:45:12;3.80;99.90
42479;DHT22;28110;47.080;9.476;2023-02-28T12:47:40;3.80;99.90
42479;DHT22;28110;47.080;9.476;2023-02-28T12:50:10;3.70;99.90
42479;DHT22;28110;47.080;9.476;2023-02-28T12:52:54;3.70;99.90
42479;DHT22;28110;47.080;9.476;2023-02-28T12:55:35;3.70;99.90
42479;DHT22;28110;47.080;9.476;2023-02-28T12:58:21;3.70;99.90
42479;DHT22;28110;47.080;9.476;2023-02-28T13:01:03;3.80;99.90
42479;DHT22;28110;47.080;9.476;2023-02-28T13:11:42;4.00;99.90
42479;DHT22;28110;47.080;9.476;2023-02-28T13:19:33;4.00;99.90
42479;DHT22;28110;47.080;9.476;2023-02-28T13:21:59;3.90;99.90
42479;DHT22;28110;47.080;9.476;2023-02-28T13:24:58;3.90;99.90
42479;DHT22;28110;47.080;9.476;2023-02-28T13:27:39;4.00;99.90
42479;DHT22;28110;47.080;9.476;2023-02-28T13:33:31;3.90;99.90
42479;DHT22;28110;47.080;9.476;2023-02-28T13:38:58;3.90;99.90
42479;DHT22;28110;47.080;9.476;2023-02-28T13:46:26;3.80;99.90
42479;DHT22;28110;47.080;9.476;2023-02-28T13:48:52;3.70;99.90
42479;DHT22;28110;47.080;9.476;2023-02-28T13:51:45;3.70;99.90
42479;DHT22;28110;47.080;9.476;2023-02-28T13:57:04;3.70;99.90
42479;DHT22;28110;47.080;9.476;2023-02-28T14:02:29;3.80;99.90
42479;DHT22;28110;47.080;9.476;2023-02-28T14:05:13;3.80;99.90
42479;DHT22;28110;47.080;9.476;2023-02-28T14:10:31;3.70;99.90
42479;DHT22;28110;47.080;9.476;2023-02-28T14:13:47;3.60;99.90
42479;DHT22;28110;47.080;9.476;2023-02-28T14:15:58;3.60;99.90
42479;DHT22;28110;47.080;9.476;2023-02-28T14:18:25;3.60;99.90
42479;DHT22;28110;47.080;9.476;2023-02-28T14:20:56;3.60;99.90
42479;DHT22;28110;47.080;9.476;2023-02-28T14:23:38;3.60;99.90
42479;DHT22;28110;47.080;9.476;2023-02-28T14:32:03;3.60;99.90
42479;DHT22;28110;47.080;9.476;2023-02-28T14:37:16;3.50;99.90
42479;DHT22;28110;47.080;9.476;2023-02-28T14:39:44;3.40;99.90
42479;DHT22;28110;47.080;9.476;2023-02-28T14:44:56;3.40;99.90
42479;DHT22;28110;47.080;9.476;2023-02-28T14:47:25;3.40;99.90
42479;DHT22;28110;47.080;9.476;2023-02-28T14:49:52;3.40;99.90
42479;DHT22;28110;47.080;9.476;2023-02-28T14:52:22;3.40;99.90
42479;DHT22;28110;47.080;9.476;2023-02-28T14:55:03;3.30;99.90
42479;DHT22;28110;47.080;9.476;2023-02-28T14:57:38;3.40;99.90
42479;DHT22;28110;47.080;9.476;2023-02-28T15:00:21;3.40;99.90
42479;DHT22;28110;47.080;9.476;2023-02-28T15:02:47;3.40;99.90
42479;DHT22;28110;47.080;9.476;2023-02-28T15:07:39;3.30;99.90
42479;DHT22;28110;47.080;9.476;2023-02-28T15:12:53;3.20;99.90
42479;DHT22;28110;47.080;9.476;2023-02-28T15:15:22;3.20;99.90
42479;DHT22;28110;47.080;9.476;2023-02-28T15:17:53;3.20;99.90
42479;DHT22;28110;47.080;9.476;2023-02-28T15:20:22;3.10;99.90
42479;DHT22;28110;47.080;9.476;2023-02-28T15:22:50;3.10;99.90
42479;DHT22;28110;47.080;9.476;2023-02-28T15:25:19;3.00;99.90
42479;DHT22;28110;47.080;9.476;2023-02-28T15:27:51;3.00;99.90
42479;DHT22;28110;47.080;9.476;2023-02-28T15:30:38;3.00;99.90
42479;DHT22;28110;47.080;9.476;2023-02-28T15:35:37;2.80;99.90
42479;DHT22;28110;47.080;9.476;2023-02-28T15:40:40;2.70;99.90
42479;DHT22;28110;47.080;9.476;2023-02-28T15:43:23;2.70;99.90
42479;DHT22;28110;47.080;9.476;2023-02-28T15:45:51;2.70;99.90
42479;DHT22;28110;47.080;9.476;2023-02-28T15:51:08;2.70;99.90
42479;DHT22;28110;47.080;9.476;2023-02-28T15:53:59;2.60;99.90
42479;DHT22;28110;47.080;9.476;2023-02-28T15:56:24;2.60;99.90
42479;DHT22;28110;47.080;9.476;2023-02-28T15:58:50;2.50;99.90
42479;DHT22;28110;47.080;9.476;2023-02-28T16:01:31;2.50;99.90
42479;DHT22;28110;47.080;9.476;2023-02-28T16:04:01;2.60;99.90
42479;DHT22;28110;47.080;9.476;2023-02-28T16:06:37;2.50;99.90
42479;DHT22;28110;47.080;9.476;2023-02-28T16:09:05;2.50;99.90
42479;DHT22;28110;47.080;9.476;2023-02-28T16:11:34;2.50;99.90
42479;DHT22;28110;47.080;9.476;2023-02-28T16:14:00;2.50;99.90
42479;DHT22;28110;47.080;9.476;2023-02-28T16:16:26;2.50;99.90
42479;DHT22;28110;47.080;9.476;2023-02-28T16:18:52;2.40;99.90
42479;DHT22;28110;47.080;9.476;2023-02-28T16:21:17;2.40;99.90
42479;DHT22;28110;47.080;9.476;2023-02-28T16:23:43;2.40;99.90
42479;DHT22;28110;47.080;9.476;2023-02-28T16:26:19;2.30;99.90
42479;DHT22;28110;47.080;9.476;2023-02-28T16:28:45;2.30;99.90
42479;DHT22;28110;47.080;9.476;2023-02-28T16:31:11;2.20;99.90
42479;DHT22;28110;47.080;9.476;2023-02-28T16:33:42;2.20;99.90
42479;DHT22;28110;47.080;9.476;2023-02-28T16:36:21;2.20;99.90
42479;DHT22;28110;47.080;9.476;2023-02-28T16:38:47;2.20;99.90
42479;DHT22;28110;47.080;9.476;2023-02-28T16:41:17;2.10;99.90
42479;DHT22;28110;47.080;9.476;2023-02-28T16:43:46;2.10;99.90
42479;DHT22;28110;47.080;9.476;2023-02-28T16:46:12;2.10;99.90
42479;DHT22;28110;47.080;9.476;2023-02-28T16:48:39;2.00;99.90
42479;DHT22;28110;47.080;9.476;2023-02-28T16:51:10;2.00;99.90
42479;DHT22;28110;47.080;9.476;2023-02-28T16:53:36;2.00;99.90
42479;DHT22;28110;47.080;9.476;2023-02-28T16:56:01;2.00;99.90
42479;DHT22;28110;47.080;9.476;2023-02-28T16:58:27;2.00;99.90
42479;DHT22;28110;47.080;9.476;2023-02-28T17:00:53;1.90;99.90
42479;DHT22;28110;47.080;9.476;2023-02-28T17:03:24;1.90;99.90
42479;DHT22;28110;47.080;9.476;2023-02-28T17:05:50;1.90;99.90
42479;DHT22;28110;47.080;9.476;2023-02-28T17:08:15;1.90;99.90
42479;DHT22;28110;47.080;9.476;2023-02-28T17:10:41;1.90;99.90
42479;DHT22;28110;47.080;9.476;2023-02-28T17:13:07;1.90;99.90
42479;DHT22;28110;47.080;9.476;2023-02-28T17:15:34;2.00;99.90
42479;DHT22;28110;47.080;9.476;2023-02-28T17:17:59;1.90;99.90
42479;DHT22;28110;47.080;9.476;2023-02-28T17:20:25;1.90;99.90
42479;DHT22;28110;47.080;9.476;2023-02-28T17:22:52;2.00;99.90
42479;DHT22;28110;47.080;9.476;2023-02-28T17:25:18;2.00;99.90
42479;DHT22;28110;47.080;9.476;2023-02-28T17:27:44;2.00;99.90
42479;DHT22;28110;47.080;9.476;2023-02-28T17:30:30;1.90;99.90
42479;DHT22;28110;47.080;9.476;2023-02-28T17:32:58;1.90;99.90
42479;DHT22;28110;47.080;9.476;2023-02-28T17:35:23;1.90;99.90
42479;DHT22;28110;47.080;9.476;2023-02-28T17:37:49;1.80;99.90
42479;DHT22;28110;47.080;9.476;2023-02-28T17:40:18;1.90;99.90
42479;DHT22;28110;47.080;9.476;2023-02-28T17:42:44;1.80;99.90
42479;DHT22;28110;47.080;9.476;2023-02-28T17:45:12;1.80;99.90
42479;DHT22;28110;47.080;9.476;2023-02-28T17:47:38;1.80;99.90
42479;DHT22;28110;47.080;9.476;2023-02-28T17:50:04;1.90;99.90
42479;DHT22;28110;47.080;9.476;2023-02-28T17:52:30;1.90;99.90
42479;DHT22;28110;47.080;9.476;2023-02-28T17:54:56;1.90;99.90
42479;DHT22;28110;47.080;9.476;2023-02-28T17:57:21;1.80;99.90
42479;DHT22;28110;47.080;9.476;2023-02-28T17:59:47;1.90;99.90
42479;DHT22;28110;47.080;9.476;2023-02-28T18:02:13;1.90;99.90
42479;DHT22;28110;47.080;9.476;2023-02-28T18:04:39;1.90;99.90
42479;DHT22;28110;47.080;9.476;2023-02-28T18:07:06;1.90;99.90
42479;DHT22;28110;47.080;9.476;2023-02-28T18:09:32;1.90;99.90
42479;DHT22;28110;47.080;9.476;2023-02-28T18:11:57;1.90;99.90
42479;DHT22;28110;47.080;9.476;2023-02-28T18:14:24;1.90;99.90
42479;DHT22;28110;47.080;9.476;2023-02-28T18:16:51;2.00;99.90
42479;DHT22;28110;47.080;9.476;2023-02-28T18:19:17;1.90;99.90
42479;DHT22;28110;47.080;9.476;2023-02-28T18:21:48;1.90;99.90
42479;DHT22;28110;47.080;9.476;2023-02-28T18:24:15;1.90;99.90
42479;DHT22;28110;47.080;9.476;2023-02-28T18:26:41;2.00;99.90